createdAt,value
2024-01-20T00:01:05.772Z,102895.44
2024-01-20T00:03:34.371Z,102889.50
2024-01-20T00:06:03.072Z,102843.00
2024-01-20T00:08:31.689Z,102891.31
2024-01-20T00:11:00.240Z,102891.47
2024-01-20T00:13:28.827Z,102884.44
2024-01-20T00:15:58.769Z,102897.47
2024-01-20T00:18:29.278Z,102884.28
2024-01-20T00:20:58.078Z,102814.44
2024-01-20T00:23:26.813Z,102769.72
2024-01-20T00:25:55.876Z,102892.19
2024-01-20T00:28:24.361Z,102865.31
2024-01-20T00:30:52.811Z,102876.66
2024-01-20T00:33:22.193Z,102890.47
2024-01-20T00:35:52.179Z,102882.47
2024-01-20T00:38:20.768Z,102859.28
2024-01-20T00:40:49.522Z,102890.53
2024-01-20T00:43:18.583Z,102888.69
2024-01-20T00:45:50.632Z,102871.53
2024-01-20T00:48:19.340Z,102887.94
2024-01-20T00:50:48.092Z,102818.88
2024-01-20T00:53:18.058Z,102827.53
2024-01-20T00:55:47.176Z,102829.31
2024-01-20T00:58:15.769Z,102891.47
2024-01-20T01:00:44.209Z,102854.34
2024-01-20T01:03:12.701Z,102852.56
2024-01-20T01:05:41.276Z,102891.72
2024-01-20T01:08:09.861Z,102849.44
2024-01-20T01:10:39.863Z,102894.09
2024-01-20T01:13:08.510Z,102878.66
2024-01-20T01:15:37.171Z,102808.75
2024-01-20T01:18:06.745Z,102856.16
2024-01-20T01:20:35.304Z,102892.34
2024-01-20T01:23:04.006Z,102886.28
2024-01-20T01:25:32.513Z,102888.13
2024-01-20T01:28:03.021Z,102892.44
2024-01-20T01:30:31.564Z,102875.94
2024-01-20T01:33:00.502Z,102897.56
2024-01-20T01:35:29.203Z,102846.63
2024-01-20T01:37:59.547Z,102874.47
2024-01-20T01:40:28.330Z,102883.97
2024-01-20T01:42:58.497Z,102893.47
2024-01-20T01:45:28.706Z,102895.84
2024-01-20T01:47:58.627Z,102888.06
2024-01-20T01:50:28.571Z,102905.09
2024-01-20T01:52:58.208Z,102883.09
2024-01-20T01:55:28.395Z,102907.41
2024-01-20T01:57:59.168Z,102877.84
2024-01-20T02:00:31.927Z,102907.09
2024-01-20T02:03:00.745Z,102918.56
2024-01-20T02:05:29.636Z,102858.97
2024-01-20T02:08:01.041Z,102917.75
2024-01-20T02:10:30.963Z,102927.38
2024-01-20T02:13:01.774Z,102928.25
2024-01-20T02:15:32.065Z,102902.38
2024-01-20T02:18:00.974Z,102921.16
2024-01-20T02:20:29.827Z,102898.56
2024-01-20T02:23:02.413Z,102917.63
2024-01-20T02:25:31.103Z,102916.78
2024-01-20T02:28:01.060Z,102917.75
2024-01-20T02:30:29.720Z,102899.50
2024-01-20T02:32:58.350Z,102915.94
2024-01-20T02:35:26.882Z,102911.53
2024-01-20T02:37:55.439Z,102910.00
2024-01-20T02:40:25.577Z,102857.38
2024-01-20T02:42:54.060Z,102921.09
2024-01-20T02:45:22.605Z,102886.69
2024-01-20T02:47:52.707Z,102939.28
2024-01-20T02:50:21.280Z,102924.78
2024-01-20T02:52:50.213Z,102921.31
2024-01-20T02:55:19.037Z,102944.44
2024-01-20T02:57:48.959Z,102939.28
2024-01-20T03:00:17.723Z,102930.50
2024-01-20T03:02:46.432Z,102926.06
2024-01-20T03:05:15.178Z,102894.31
2024-01-20T03:07:43.651Z,102934.97
2024-01-20T03:10:12.838Z,102921.97
2024-01-20T03:12:41.412Z,102927.00
2024-01-20T03:15:12.069Z,102922.09
2024-01-20T03:17:40.973Z,102912.47
2024-01-20T03:20:11.221Z,102921.09
2024-01-20T03:22:39.671Z,102920.22
2024-01-20T03:25:09.834Z,102908.16
2024-01-20T03:27:38.833Z,102933.91
2024-01-20T03:30:10.937Z,102938.94
2024-01-20T03:32:39.885Z,102926.22
2024-01-20T03:35:09.419Z,102946.03
2024-01-20T03:37:38.093Z,102952.00
2024-01-20T03:40:08.164Z,102951.97
2024-01-20T03:42:36.837Z,102954.78
2024-01-20T03:45:06.489Z,102955.84
2024-01-20T03:47:36.365Z,102958.41
2024-01-20T03:50:06.689Z,102926.28
2024-01-20T03:52:35.277Z,102954.06
2024-01-20T03:55:03.780Z,102909.22
2024-01-20T03:57:32.723Z,102955.84
2024-01-20T04:00:01.269Z,102888.47
2024-01-20T04:02:30.103Z,102954.06
2024-01-20T04:05:00.115Z,102956.69
2024-01-20T04:07:28.617Z,102924.50
2024-01-20T04:09:57.355Z,102918.56
2024-01-20T04:12:26.058Z,102942.00
2024-01-20T04:14:56.842Z,102958.41
2024-01-20T04:17:25.497Z,102909.94
2024-01-20T04:19:54.370Z,102950.44
2024-01-20T04:22:24.592Z,102966.03
2024-01-20T04:24:53.026Z,102959.16
2024-01-20T04:27:21.596Z,102926.47
2024-01-20T04:29:50.071Z,102966.31
2024-01-20T04:32:18.546Z,102855.88
2024-01-20T04:34:48.572Z,102970.66
2024-01-20T04:37:16.993Z,102966.25
2024-01-20T04:39:46.944Z,102925.72
2024-01-20T04:42:15.524Z,102950.59
2024-01-20T04:44:44.111Z,102931.25
2024-01-20T04:47:12.707Z,102928.94
2024-01-20T04:49:41.315Z,102889.97
2024-01-20T04:52:10.153Z,102966.84
2024-01-20T04:54:38.748Z,102966.34
2024-01-20T04:57:08.762Z,102966.34
2024-01-20T04:59:37.192Z,102952.56
2024-01-20T05:02:06.075Z,102979.31
2024-01-20T05:04:34.678Z,102984.47
2024-01-20T05:07:03.287Z,102972.50
2024-01-20T05:09:31.811Z,102973.31
2024-01-20T05:12:00.331Z,102976.06
2024-01-20T05:14:30.607Z,102940.50
2024-01-20T05:16:59.263Z,102980.31
2024-01-20T05:19:27.933Z,102977.81
2024-01-20T05:21:56.350Z,102969.31
2024-01-20T05:24:24.800Z,102978.69
2024-01-20T05:26:53.371Z,102985.69
2024-01-20T05:29:21.872Z,102950.94
2024-01-20T05:31:52.037Z,102945.78
2024-01-20T05:34:20.572Z,102984.66
2024-01-20T05:36:49.487Z,102984.56
2024-01-20T05:39:18.046Z,102941.56
2024-01-20T05:41:46.454Z,102999.34
2024-01-20T05:44:16.510Z,103006.38
2024-01-20T05:46:45.176Z,102962.50
2024-01-20T05:49:15.338Z,102985.72
2024-01-20T05:51:43.781Z,102966.81
2024-01-20T05:54:12.548Z,102966.00
2024-01-20T05:56:41.019Z,103017.91
2024-01-20T05:59:09.574Z,103014.38
2024-01-20T06:01:37.996Z,103027.38
2024-01-20T06:04:06.551Z,103019.81
2024-01-20T06:06:36.424Z,102993.00
2024-01-20T06:09:05.221Z,103012.94
2024-01-20T06:11:34.080Z,103021.75
2024-01-20T06:14:02.704Z,103033.81
2024-01-20T06:16:31.197Z,103040.00
2024-01-20T06:18:59.700Z,103031.25
2024-01-20T06:21:28.450Z,103031.22
2024-01-20T06:23:58.309Z,103038.94
2024-01-20T06:26:26.969Z,103028.66
2024-01-20T06:28:55.469Z,103041.63
2024-01-20T06:31:28.934Z,103034.72
2024-01-20T06:33:57.774Z,103052.03
2024-01-20T06:36:27.296Z,103008.47
2024-01-20T06:38:57.373Z,103063.75
2024-01-20T06:41:25.901Z,103054.25
2024-01-20T06:43:54.303Z,103044.22
2024-01-20T06:46:22.812Z,103044.94
2024-01-20T06:48:51.653Z,103026.72
2024-01-20T06:51:24.151Z,103057.03
2024-01-20T06:53:58.195Z,103033.69
2024-01-20T06:56:28.152Z,102969.00
2024-01-20T06:58:58.044Z,103001.78
2024-01-20T07:01:27.062Z,103044.97
2024-01-20T07:03:55.723Z,103041.41
2024-01-20T07:06:26.167Z,102987.06
2024-01-20T07:08:56.201Z,103031.91
2024-01-20T07:11:27.812Z,103025.84
2024-01-20T07:13:56.259Z,103007.88
2024-01-20T07:16:24.886Z,103004.34
2024-01-20T07:18:55.770Z,103000.94
2024-01-20T07:21:24.774Z,103031.41
2024-01-20T07:23:54.592Z,103021.81
2024-01-20T07:26:23.181Z,103054.56
2024-01-20T07:28:53.091Z,103045.75
2024-01-20T07:31:21.865Z,103051.03
2024-01-20T07:33:50.544Z,103016.59
2024-01-20T07:36:19.203Z,103045.84
2024-01-20T07:38:48.638Z,103058.91
2024-01-20T07:41:17.194Z,103059.81
2024-01-20T07:43:45.602Z,103044.97
2024-01-20T07:46:15.661Z,103064.06
2024-01-20T07:48:44.828Z,103043.06
2024-01-20T07:51:13.594Z,103078.50
2024-01-20T07:53:42.029Z,103027.31
2024-01-20T07:56:12.827Z,103061.81
2024-01-20T07:58:41.222Z,103063.50
2024-01-20T08:01:10.390Z,103066.06
2024-01-20T08:03:40.757Z,103045.03
2024-01-20T08:06:10.332Z,103068.44
2024-01-20T08:08:38.872Z,103084.69
2024-01-20T08:11:07.466Z,103066.53
2024-01-20T08:13:35.923Z,103099.19
2024-01-20T08:16:04.676Z,103103.44
2024-01-20T08:18:33.130Z,103092.72
2024-01-20T08:21:08.066Z,103096.31
2024-01-20T08:23:36.729Z,103093.69
2024-01-20T08:26:05.701Z,103093.59
2024-01-20T08:28:34.314Z,103097.97
2024-01-20T08:31:02.985Z,103105.06
2024-01-20T08:33:31.719Z,103047.81
2024-01-20T08:36:00.302Z,103097.63
2024-01-20T08:38:30.199Z,102972.66
2024-01-20T08:40:59.290Z,103118.97
2024-01-20T08:43:29.358Z,103109.47
2024-01-20T08:45:57.897Z,103065.16
2024-01-20T08:48:26.844Z,103059.13
2024-01-20T08:50:55.256Z,103123.31
2024-01-20T08:53:23.779Z,103111.28
2024-01-20T08:55:53.597Z,103087.06
2024-01-20T08:58:22.189Z,103110.22
2024-01-20T09:00:54.584Z,103119.72
2024-01-20T09:03:23.250Z,103122.47
2024-01-20T09:05:51.875Z,103121.53
2024-01-20T09:08:20.402Z,103118.75
2024-01-20T09:10:48.857Z,103111.81
2024-01-20T09:13:19.267Z,103119.56
2024-01-20T09:15:47.880Z,103053.75
2024-01-20T09:18:17.480Z,103106.06
2024-01-20T09:20:46.940Z,103118.75
2024-01-20T09:23:15.587Z,103123.88
2024-01-20T09:25:45.762Z,103073.84
2024-01-20T09:28:15.641Z,103108.28
2024-01-20T09:30:45.734Z,103124.28
2024-01-20T09:33:15.449Z,103124.66
2024-01-20T09:35:46.757Z,103117.66
2024-01-20T09:38:15.423Z,103120.22
2024-01-20T09:40:44.060Z,103109.06
2024-01-20T09:43:13.402Z,103119.00
2024-01-20T09:45:42.393Z,103085.28
2024-01-20T09:48:12.556Z,103135.03
2024-01-20T09:50:41.364Z,103105.78
2024-01-20T09:53:16.916Z,103123.66
2024-01-20T09:55:47.176Z,103106.47
2024-01-20T09:58:18.767Z,103128.00
2024-01-20T10:00:48.069Z,103138.88
2024-01-20T10:03:21.712Z,103135.50
2024-01-20T10:05:53.167Z,103141.59
2024-01-20T10:08:21.568Z,103127.50
2024-01-20T10:10:50.320Z,103145.56
2024-01-20T10:13:20.865Z,103118.50
2024-01-20T10:15:49.360Z,103129.09
2024-01-20T10:18:19.460Z,103107.06
2024-01-20T10:20:49.062Z,103154.66
2024-01-20T10:23:19.699Z,103135.34
2024-01-20T10:25:48.137Z,103162.66
2024-01-20T10:28:16.543Z,103158.81
2024-01-20T10:30:45.433Z,103098.06
2024-01-20T10:33:15.534Z,103169.34
2024-01-20T10:35:45.442Z,103147.25
2024-01-20T10:38:16.249Z,103148.03
2024-01-20T10:40:46.417Z,103117.84
2024-01-20T10:43:17.511Z,103115.34
2024-01-20T10:46:01.785Z,103058.28
2024-01-20T10:48:35.084Z,103130.16
2024-01-20T10:51:11.307Z,103138.50
2024-01-20T10:53:41.030Z,103138.06
2024-01-20T10:56:10.407Z,103152.44
2024-01-20T10:58:48.946Z,103152.25
2024-01-20T11:01:18.590Z,103148.56
2024-01-20T11:03:47.348Z,103150.88
2024-01-20T11:06:23.161Z,103114.78
2024-01-20T11:08:52.581Z,103124.66
2024-01-20T11:11:21.747Z,103132.72
2024-01-20T11:13:50.723Z,103109.41
2024-01-20T11:16:23.628Z,103094.38
2024-01-20T11:18:52.344Z,103141.78
2024-01-20T11:21:22.304Z,103094.28
2024-01-20T11:24:00.539Z,103138.34
2024-01-20T11:26:34.917Z,103108.25
2024-01-20T11:29:05.738Z,103096.06
2024-01-20T11:31:35.096Z,103098.31
2024-01-20T11:34:07.175Z,103107.03
2024-01-20T11:36:37.935Z,102989.91
2024-01-20T11:39:07.434Z,103121.59
2024-01-20T11:41:36.153Z,103066.56
2024-01-20T11:44:04.726Z,103093.75
2024-01-20T11:46:33.461Z,103108.59
2024-01-20T11:49:02.029Z,103084.78
2024-01-20T11:51:30.645Z,103112.91
2024-01-20T11:54:00.718Z,103113.88
2024-01-20T11:56:29.721Z,103070.34
2024-01-20T11:58:58.303Z,102997.84
2024-01-20T12:01:26.785Z,103002.50
2024-01-20T12:03:56.130Z,103104.56
2024-01-20T12:06:24.958Z,103090.59
2024-01-20T12:08:53.649Z,103084.06
2024-01-20T12:11:25.521Z,103112.72
2024-01-20T12:13:54.308Z,102979.59
2024-01-20T12:16:23.429Z,103103.59
2024-01-20T12:18:52.031Z,103055.66
2024-01-20T12:21:20.728Z,103008.13
2024-01-20T12:23:49.606Z,103071.06
2024-01-20T12:26:18.439Z,103058.66
2024-01-20T12:28:51.617Z,103048.81
2024-01-20T12:31:22.898Z,103061.59
2024-01-20T12:33:52.448Z,103071.06
2024-01-20T12:36:21.382Z,103066.88
2024-01-20T12:38:50.595Z,103037.91
2024-01-20T12:41:19.093Z,103014.94
2024-01-20T12:43:50.366Z,103009.56
2024-01-20T12:46:20.091Z,102987.03
2024-01-20T12:48:48.654Z,102974.06
2024-01-20T12:51:17.419Z,103018.63
2024-01-20T12:53:46.084Z,103013.28
2024-01-20T12:56:15.041Z,102977.19
2024-01-20T12:58:43.565Z,103013.34
2024-01-20T13:01:13.549Z,103020.81
2024-01-20T13:03:42.068Z,103004.28
2024-01-20T13:06:11.211Z,103011.69
2024-01-20T13:08:39.710Z,103011.28
2024-01-20T13:11:08.204Z,103018.47
2024-01-20T13:13:36.784Z,103005.56
2024-01-20T13:16:07.407Z,102943.63
2024-01-20T13:18:37.651Z,102937.22
2024-01-20T13:21:06.298Z,102992.06
2024-01-20T13:23:34.979Z,102977.59
2024-01-20T13:26:03.575Z,102991.50
2024-01-20T13:28:34.254Z,102988.94
2024-01-20T13:31:03.087Z,102990.34
2024-01-20T13:33:32.400Z,102963.34
2024-01-20T13:36:02.288Z,102989.94
2024-01-20T13:38:31.083Z,102995.78
2024-01-20T13:40:59.843Z,102998.97
2024-01-20T13:43:28.314Z,102960.28
2024-01-20T13:45:57.172Z,102987.63
2024-01-20T13:48:25.964Z,103006.38
2024-01-20T13:50:54.735Z,102992.50
2024-01-20T13:53:25.481Z,102957.34
2024-01-20T13:55:54.051Z,102943.19
2024-01-20T13:58:22.472Z,102946.91
2024-01-20T14:00:51.276Z,102978.66
2024-01-20T14:03:19.901Z,102990.84
2024-01-20T14:05:50.436Z,102953.34
2024-01-20T14:08:19.896Z,102911.00
2024-01-20T14:10:49.848Z,102941.97
2024-01-20T14:13:18.465Z,102991.69
2024-01-20T14:15:47.066Z,102987.69
2024-01-20T14:18:15.785Z,102967.84
2024-01-20T14:20:44.406Z,102952.25
2024-01-20T14:23:12.827Z,102980.09
2024-01-20T14:25:41.289Z,102960.66
2024-01-20T14:28:11.179Z,102881.34
2024-01-20T14:30:41.144Z,102993.78
2024-01-20T14:33:10.689Z,103004.50
2024-01-20T14:35:39.276Z,102994.94
2024-01-20T14:38:07.795Z,102996.63
2024-01-20T14:40:36.524Z,102998.16
2024-01-20T14:43:06.715Z,102986.38
2024-01-20T14:45:37.401Z,102986.03
2024-01-20T14:48:08.352Z,102982.72
2024-01-20T14:50:37.183Z,102989.72
2024-01-20T14:53:05.877Z,102990.56
2024-01-20T14:55:34.266Z,103000.72
2024-01-20T14:58:03.548Z,102975.88
2024-01-20T15:00:32.125Z,103004.53
2024-01-20T15:03:02.255Z,102993.59
2024-01-20T15:05:30.797Z,103000.53
2024-01-20T15:07:59.531Z,102985.97
2024-01-20T15:10:28.034Z,102920.41
2024-01-20T15:12:56.478Z,102998.50
2024-01-20T15:15:24.982Z,102957.78
2024-01-20T15:17:53.444Z,102939.31
2024-01-20T15:20:23.305Z,102985.47
2024-01-20T15:22:51.925Z,103005.09
2024-01-20T15:25:20.435Z,102986.59
2024-01-20T15:27:49.056Z,102987.63
2024-01-20T15:30:17.806Z,103004.63
2024-01-20T15:32:46.380Z,102988.22
2024-01-20T15:35:15.147Z,103002.59
2024-01-20T15:37:44.995Z,102885.09
2024-01-20T15:40:14.539Z,103000.38
2024-01-20T15:42:43.075Z,102949.69
2024-01-20T15:45:12.041Z,102966.88
2024-01-20T15:47:40.589Z,102890.78
2024-01-20T15:50:09.898Z,102945.84
2024-01-20T15:52:38.453Z,102854.78
2024-01-20T15:55:10.786Z,102951.81
2024-01-20T15:57:39.483Z,102979.09
2024-01-20T16:00:12.129Z,102971.22
2024-01-20T16:02:40.766Z,102944.72
2024-01-20T16:05:10.206Z,102984.78
2024-01-20T16:07:38.869Z,102976.50
2024-01-20T16:10:09.991Z,102980.91
2024-01-20T16:12:40.674Z,102979.13
2024-01-20T16:15:12.203Z,102974.88
2024-01-20T16:17:41.416Z,102984.44
2024-01-20T16:20:11.292Z,102990.72
2024-01-20T16:22:40.899Z,102991.59
2024-01-20T16:25:10.979Z,102957.13
2024-01-20T16:27:39.593Z,102992.41
2024-01-20T16:30:10.124Z,102972.41
2024-01-20T16:32:38.704Z,102985.78
2024-01-20T16:35:08.082Z,102985.09
2024-01-20T16:37:37.252Z,102985.56
2024-01-20T16:40:07.086Z,102978.63
2024-01-20T16:42:37.008Z,102973.56
2024-01-20T16:45:06.526Z,102989.25
2024-01-20T16:47:35.185Z,102985.78
2024-01-20T16:50:04.041Z,102986.28
2024-01-20T16:52:32.745Z,102990.81
2024-01-20T16:55:14.084Z,102986.31
2024-01-20T16:57:45.641Z,102995.22
2024-01-20T17:00:15.628Z,102996.81
2024-01-20T17:02:44.143Z,102986.44
2024-01-20T17:05:12.668Z,102936.47
2024-01-20T17:07:42.181Z,102936.44
2024-01-20T17:10:12.409Z,102974.59
2024-01-20T17:12:40.923Z,102960.81
2024-01-20T17:15:12.481Z,102983.47
2024-01-20T17:17:41.052Z,102985.13
2024-01-20T17:20:11.017Z,102966.19
2024-01-20T17:22:39.368Z,102980.81
2024-01-20T17:25:09.809Z,102956.75
2024-01-20T17:27:39.899Z,102961.09
2024-01-20T17:30:11.864Z,102967.84
2024-01-20T17:32:40.873Z,102823.03
2024-01-20T17:35:10.345Z,102945.50
2024-01-20T17:37:39.048Z,102948.09
2024-01-20T17:40:10.170Z,102949.03
2024-01-20T17:42:38.780Z,102908.25
2024-01-20T17:45:11.282Z,102933.19
2024-01-20T17:47:40.955Z,102915.41
2024-01-20T17:50:09.924Z,102938.56
2024-01-20T17:52:38.747Z,102934.22
2024-01-20T17:55:08.544Z,102929.34
2024-01-20T17:57:37.065Z,102933.44
2024-01-20T18:00:07.915Z,102953.44
2024-01-20T18:02:46.901Z,102955.88
2024-01-20T18:05:15.794Z,102895.38
2024-01-20T18:07:50.450Z,102948.13
2024-01-20T18:10:20.413Z,102899.03
2024-01-20T18:12:49.097Z,102948.31
2024-01-20T18:15:17.944Z,102945.03
2024-01-20T18:17:47.852Z,102947.78
2024-01-20T18:20:16.327Z,102944.50
2024-01-20T18:22:46.428Z,102947.97
2024-01-20T18:25:14.860Z,102952.41
2024-01-20T18:27:43.277Z,102948.22
2024-01-20T18:30:12.306Z,102923.22
2024-01-20T18:32:41.036Z,102942.03
2024-01-20T18:35:12.977Z,102941.25
2024-01-20T18:37:42.980Z,102946.66
2024-01-20T18:40:14.106Z,102948.38
2024-01-20T18:42:43.302Z,102921.56
2024-01-20T18:45:12.035Z,102939.66
2024-01-20T18:47:41.881Z,102948.31
2024-01-20T18:50:12.552Z,102936.38
2024-01-20T18:52:40.943Z,102913.78
2024-01-20T18:55:10.039Z,102910.25
2024-01-20T18:57:39.587Z,102928.34
2024-01-20T19:00:09.414Z,102928.38
2024-01-20T19:02:37.900Z,102942.19
2024-01-20T19:05:07.215Z,102935.16
2024-01-20T19:07:37.591Z,102896.38
2024-01-20T19:10:10.972Z,102907.59
2024-01-20T19:12:41.197Z,102934.50
2024-01-20T19:15:10.380Z,102925.69
2024-01-20T19:17:38.956Z,102926.50
2024-01-20T19:20:10.498Z,102931.94
2024-01-20T19:22:40.263Z,102915.34
2024-01-20T19:25:11.549Z,102917.75
2024-01-20T19:27:40.164Z,102901.44
2024-01-20T19:30:10.508Z,102911.81
2024-01-20T19:32:39.190Z,102919.50
2024-01-20T19:35:08.099Z,102921.13
2024-01-20T19:37:36.445Z,102907.97
2024-01-20T19:40:08.980Z,102885.28
2024-01-20T19:42:37.539Z,102897.34
2024-01-20T19:45:06.947Z,102898.22
2024-01-20T19:47:37.676Z,102900.75
2024-01-20T19:50:08.381Z,102886.78
2024-01-20T19:52:38.531Z,102893.78
2024-01-20T19:55:09.691Z,102863.72
2024-01-20T19:57:39.050Z,102858.50
2024-01-20T20:00:10.801Z,102837.72
2024-01-20T20:02:42.783Z,102862.59
2024-01-20T20:05:11.327Z,102878.38
2024-01-20T20:07:39.785Z,102826.78
2024-01-20T20:10:10.781Z,102880.25
2024-01-20T20:12:39.335Z,102857.75
2024-01-20T20:15:10.151Z,102835.47
2024-01-20T20:17:39.242Z,102828.44
2024-01-20T20:20:09.237Z,102819.56
2024-01-20T20:22:37.647Z,102841.28
2024-01-20T20:25:06.907Z,102842.03
2024-01-20T20:27:36.758Z,102821.28
2024-01-20T20:30:06.220Z,102817.63
2024-01-20T20:32:34.843Z,102833.13
2024-01-20T20:35:03.452Z,102779.44
2024-01-20T20:37:31.901Z,102779.22
2024-01-20T20:40:00.352Z,102813.50
2024-01-20T20:42:28.993Z,102761.69
2024-01-20T20:44:58.811Z,102783.00
2024-01-20T20:47:27.316Z,102794.03
2024-01-20T20:49:55.897Z,102789.50
2024-01-20T20:52:24.400Z,102791.13
2024-01-20T20:54:53.463Z,102791.69
2024-01-20T20:57:21.947Z,102786.34
2024-01-20T20:59:50.450Z,102792.38
2024-01-20T21:02:22.179Z,102797.38
2024-01-20T21:04:50.731Z,102762.91
2024-01-20T21:07:22.858Z,102787.06
2024-01-20T21:09:53.912Z,102787.16
2024-01-20T21:12:22.770Z,102786.44
2024-01-20T21:14:51.187Z,102776.25
2024-01-20T21:17:21.039Z,102777.25
2024-01-20T21:19:50.106Z,102736.09
2024-01-20T21:22:18.657Z,102752.63
2024-01-20T21:24:47.411Z,102768.22
2024-01-20T21:27:15.928Z,102757.75
2024-01-20T21:29:45.329Z,102746.47
2024-01-20T21:32:13.867Z,102751.56
2024-01-20T21:34:44.014Z,102730.91
2024-01-20T21:37:12.404Z,102747.19
2024-01-20T21:39:40.916Z,102740.91
2024-01-20T21:42:10.758Z,102732.00
2024-01-20T21:44:39.369Z,102670.81
2024-01-20T21:47:07.891Z,102723.22
2024-01-20T21:49:37.227Z,102730.84
2024-01-20T21:52:08.257Z,102728.94
2024-01-20T21:54:36.675Z,102732.22
2024-01-20T21:57:06.062Z,102722.47
2024-01-20T21:59:34.559Z,102689.44
2024-01-20T22:02:02.949Z,102682.31
2024-01-20T22:04:31.318Z,102706.22
2024-01-20T22:06:59.796Z,102696.53
2024-01-20T22:09:29.729Z,102687.69
2024-01-20T22:11:58.253Z,102622.28
2024-01-20T22:14:26.683Z,102684.91
2024-01-20T22:16:55.080Z,102678.84
2024-01-20T22:19:23.633Z,102675.25
2024-01-20T22:21:52.173Z,102669.00
2024-01-20T22:24:21.505Z,102678.44
2024-01-20T22:26:51.474Z,102676.03
2024-01-20T22:29:28.428Z,102658.84
2024-01-20T22:32:01.345Z,102668.69
2024-01-20T22:34:32.811Z,102622.09
2024-01-20T22:37:01.931Z,102643.53
2024-01-20T22:39:30.727Z,102584.63
2024-01-20T22:42:00.549Z,102601.53
2024-01-20T22:44:29.125Z,102624.72
2024-01-20T22:46:57.525Z,102637.66
2024-01-20T22:49:26.160Z,102645.69
2024-01-20T22:51:54.622Z,102644.69
2024-01-20T22:54:26.002Z,102648.31
2024-01-20T22:56:54.411Z,102637.84
2024-01-20T22:59:24.297Z,102645.75
2024-01-20T23:01:52.903Z,102636.31
2024-01-20T23:04:21.418Z,102632.75
2024-01-20T23:06:52.037Z,102601.94
2024-01-20T23:09:21.939Z,102637.47
2024-01-20T23:11:50.626Z,102622.22
2024-01-20T23:14:19.036Z,102605.03
2024-01-20T23:16:49.017Z,102585.06
2024-01-20T23:19:17.660Z,102590.78
2024-01-20T23:21:46.107Z,102605.47
2024-01-20T23:24:14.533Z,102578.75
2024-01-20T23:26:44.309Z,102613.00
2024-01-20T23:29:13.375Z,102561.38
2024-01-20T23:31:41.949Z,102589.63
2024-01-20T23:34:12.679Z,102598.09
2024-01-20T23:36:41.619Z,102601.56
2024-01-20T23:39:13.308Z,102618.34
2024-01-20T23:41:41.799Z,102530.53
2024-01-20T23:44:11.206Z,102591.75
2024-01-20T23:46:39.559Z,102574.72
2024-01-20T23:49:08.011Z,102569.75
2024-01-20T23:51:37.907Z,102571.47
2024-01-20T23:54:06.448Z,102540.47
2024-01-20T23:56:34.841Z,102553.50
2024-01-20T23:59:03.563Z,102498.44
